Time;durP1;ratioP1;P1;durP2;ratioP2;P2;SDS_P1;SDS_P2;PMS_P1;PMS_P2;Temp;Humidity;BMP_temperature;BMP_pressure;BME280_temperature;BME280_humidity;BME280_pressure;Samples;Min_cycle;Max_cycle;Signal;HPM_P1;HPM_P2
2022/11/13 00:00:16;;;;;;;9.97;8.93;;;;;;;4.70;100.00;152570.66;4990353;28;20873;-85
2022/11/13 00:03:20;;;;;;;10.80;9.60;;;;;;;4.77;100.00;152588.69;4982222;28;20484;-86
2022/11/13 00:06:24;;;;;;;12.93;7.83;;;;;;;4.92;100.00;152626.09;4973149;28;20456;-86
2022/11/13 00:09:28;;;;;;;9.87;8.80;;;;;;;5.05;100.00;152659.59;4981021;28;20800;-86
2022/11/13 00:12:34;;;;;;;10.60;8.03;;;;;;;5.17;100.00;152689.22;4988087;28;21007;-86
2022/11/13 00:15:38;;;;;;;9.50;8.60;;;;;;;5.25;100.00;152709.84;4991617;28;20428;-85
2022/11/13 00:18:42;;;;;;;9.57;7.80;;;;;;;5.26;100.00;152712.44;4989071;28;20866;-86
2022/11/13 00:21:46;;;;;;;8.90;8.00;;;;;;;5.20;100.00;152696.94;4986984;28;20460;-86
2022/11/13 00:24:50;;;;;;;7.73;6.93;;;;;;;5.12;100.00;152676.31;4972755;28;20488;-86
2022/11/13 00:27:56;;;;;;;12.10;7.90;;;;;;;5.11;100.00;152673.78;4972938;28;20449;-86
2022/11/13 00:31:01;;;;;;;8.90;8.00;;;;;;;5.10;100.00;152671.19;4986316;28;20504;-86
2022/11/13 00:34:05;;;;;;;9.87;8.40;;;;;;;5.15;100.00;152684.06;4973161;28;20526;-86
2022/11/13 00:37:09;;;;;;;8.80;7.67;;;;;;;5.10;100.00;152671.19;4983283;28;20445;-86
2022/11/13 00:40:13;;;;;;;8.70;7.77;;;;;;;5.00;100.00;152645.41;4988043;28;20479;-86
2022/11/13 00:43:19;;;;;;;8.90;8.00;;;;;;;4.91;100.00;152623.50;4989613;28;20940;-86
2022/11/13 00:46:23;;;;;;;9.10;8.10;;;;;;;4.81;100.00;152597.72;4972715;28;20422;-85
2022/11/13 00:49:27;;;;;;;8.73;7.60;;;;;;;4.65;100.00;152557.78;4982293;28;20533;-86
2022/11/13 00:52:31;;;;;;;9.60;7.70;;;;;;;4.57;100.00;152537.19;4993189;28;20467;-86
2022/11/13 00:55:35;;;;;;;9.10;7.67;;;;;;;4.56;100.00;152534.59;4992969;28;20439;-86
2022/11/13 00:58:41;;;;;;;10.23;9.23;;;;;;;4.53;100.00;152526.84;4991447;28;20871;-86
2022/11/13 01:01:45;;;;;;;8.57;7.53;;;;;;;4.46;100.00;152508.81;5011440;28;20498;-86
2022/11/13 01:04:50;;;;;;;10.03;8.10;;;;;;;4.35;100.00;152480.47;5006200;28;20984;-86
2022/11/13 01:07:54;;;;;;;8.60;7.60;;;;;;;4.26;100.00;152458.56;4989044;28;20468;-86
2022/11/13 01:10:58;;;;;;;9.20;8.20;;;;;;;4.19;100.00;152439.25;4970323;28;20430;-86
2022/11/13 01:14:04;;;;;;;8.80;7.60;;;;;;;4.23;100.00;152450.88;4971442;28;20932;-86
2022/11/13 01:17:08;;;;;;;9.00;8.10;;;;;;;4.18;100.00;152436.72;4990035;28;20472;-85
2022/11/13 01:20:13;;;;;;;9.83;7.87;;;;;;;4.16;100.00;152432.81;4991000;28;20480;-86
2022/11/13 01:23:17;;;;;;;8.50;7.60;;;;;;;4.26;100.00;152457.31;4992327;28;20448;-85
2022/11/13 01:26:23;;;;;;;9.70;8.40;;;;;;;4.30;100.00;152467.59;4998388;28;20460;-86
2022/11/13 01:29:29;;;;;;;9.90;9.00;;;;;;;4.29;100.00;152465.00;4994258;28;20779;-85
2022/11/13 01:32:33;;;;;;;10.30;9.00;;;;;;;4.23;100.00;152449.59;4999433;28;20437;-85
2022/11/13 01:35:38;;;;;;;8.97;7.57;;;;;;;4.15;100.00;152430.28;4977057;28;20807;-86
2022/11/13 01:38:42;;;;;;;10.13;8.43;;;;;;;4.20;100.00;152441.84;4984062;28;20460;-86
2022/11/13 01:41:46;;;;;;;9.93;8.17;;;;;;;4.20;100.00;152441.84;4992559;28;20445;-85
2022/11/13 01:44:54;;;;;;;9.67;8.30;;;;;;;4.21;100.00;152444.41;4976124;28;20845;-86
2022/11/13 01:47:58;;;;;;;8.30;7.50;;;;;;;4.10;100.00;152417.34;4975066;28;20413;-86
2022/11/13 01:51:04;;;;;;;11.97;9.80;;;;;;;4.03;100.00;152398.03;4977293;28;20846;-86
2022/11/13 01:54:14;;;;;;;9.30;7.77;;;;;;;4.00;100.00;152390.31;4990025;28;20495;-85
2022/11/13 01:57:19;;;;;;;9.00;7.33;;;;;;;4.03;100.00;152398.03;4994809;28;20468;-85
2022/11/13 02:00:25;;;;;;;8.80;8.00;;;;;;;3.92;100.00;152371.00;4978279;28;20551;-86
2022/11/13 02:03:30;;;;;;;9.63;8.03;;;;;;;3.91;100.00;152367.16;4976328;28;20438;-86
2022/11/13 02:06:38;;;;;;;8.53;7.73;;;;;;;3.85;100.00;152351.69;4995025;28;20433;-85
2022/11/13 02:09:44;;;;;;;8.57;7.40;;;;;;;3.85;100.00;152351.69;4993456;28;20541;-85
2022/11/13 02:12:51;;;;;;;9.70;8.07;;;;;;;3.88;100.00;152360.72;4993064;28;20461;-86
2022/11/13 02:15:57;;;;;;;9.33;8.33;;;;;;;3.84;100.00;152349.16;4993384;28;20513;-85
2022/11/13 02:19:03;;;;;;;8.60;7.80;;;;;;;3.83;100.00;152346.56;4983213;28;20517;-85
2022/11/13 02:22:11;;;;;;;9.73;8.17;;;;;;;3.74;100.00;152324.66;4981952;28;20527;-86
2022/11/13 02:25:18;;;;;;;8.47;7.67;;;;;;;3.68;100.00;152309.19;4995297;28;20484;-86
2022/11/13 02:28:22;;;;;;;8.80;7.80;;;;;;;3.62;100.00;152293.78;4984291;28;20917;-86
2022/11/13 02:31:26;;;;;;;7.80;7.00;;;;;;;3.57;100.00;152280.91;4983765;28;20581;-85
2022/11/13 02:34:30;;;;;;;9.50;7.33;;;;;;;3.53;100.00;152270.59;4986901;28;20448;-85
2022/11/13 02:37:34;;;;;;;8.17;7.10;;;;;;;3.51;100.00;152265.44;4986966;28;20493;-85
2022/11/13 02:40:40;;;;;;;11.60;8.40;;;;;;;3.50;100.00;152264.16;4974691;28;21015;-86
2022/11/13 02:43:45;;;;;;;7.83;7.10;;;;;;;3.46;100.00;152252.59;4975148;28;20520;-85
2022/11/13 02:46:49;;;;;;;8.50;7.60;;;;;;;3.43;100.00;152244.84;4988428;28;20596;-85
2022/11/13 02:49:53;;;;;;;8.73;7.80;;;;;;;3.41;100.00;152241.00;4995233;28;20429;-86
2022/11/13 02:52:57;;;;;;;9.33;6.70;;;;;;;3.39;100.00;152234.59;4994448;28;20413;-86
2022/11/13 02:56:03;;;;;;;11.23;7.80;;;;;;;3.36;100.00;152226.84;4981865;28;20529;-86
2022/11/13 02:59:07;;;;;;;10.00;8.10;;;;;;;3.30;100.00;152211.41;4972129;28;20545;-86
2022/11/13 03:02:11;;;;;;;8.90;7.97;;;;;;;3.26;100.00;152201.06;4958742;28;20422;-86
2022/11/13 03:05:15;;;;;;;8.10;7.23;;;;;;;3.20;100.00;152186.97;4951268;28;20466;-86
2022/11/13 03:08:20;;;;;;;8.37;7.57;;;;;;;3.15;100.00;152174.03;4954077;29;20442;-86
2022/11/13 03:11:26;;;;;;;7.97;7.07;;;;;;;3.16;100.00;152175.34;4946517;28;20427;-85
2022/11/13 03:14:30;;;;;;;7.53;6.70;;;;;;;3.13;100.00;152168.91;4939495;29;20440;-86
2022/11/13 03:17:34;;;;;;;7.27;6.57;;;;;;;3.08;100.00;152157.34;4944884;28;20969;-86
2022/11/13 03:20:40;;;;;;;8.37;7.57;;;;;;;3.08;100.00;152156.06;4952699;29;20470;-86
2022/11/13 03:23:44;;;;;;;7.47;6.50;;;;;;;3.03;100.00;152143.19;4951773;29;20439;-86
2022/11/13 03:26:50;;;;;;;8.13;7.23;;;;;;;3.00;100.00;152135.47;4955402;29;20945;-86
2022/11/13 03:29:54;;;;;;;8.00;6.70;;;;;;;3.00;100.00;152135.47;4949116;29;20435;-85
2022/11/13 03:32:59;;;;;;;8.03;7.23;;;;;;;2.97;100.00;152127.75;4952498;29;20458;-85
2022/11/13 03:36:03;;;;;;;7.83;7.13;;;;;;;2.97;100.00;152127.75;4967854;29;20446;-86
2022/11/13 03:39:08;;;;;;;10.47;8.17;;;;;;;2.93;100.00;152118.75;4957070;29;20458;-86
2022/11/13 03:42:13;;;;;;;8.57;7.37;;;;;;;2.91;100.00;152113.56;4952330;29;20879;-86
2022/11/13 03:45:17;;;;;;;9.23;8.07;;;;;;;2.91;100.00;152113.56;4942293;29;20471;-86
2022/11/13 03:48:22;;;;;;;9.83;8.60;;;;;;;3.12;100.00;152165.06;4952106;29;20427;-85
2022/11/13 03:51:26;;;;;;;9.20;7.90;;;;;;;3.25;100.00;152199.81;4951959;28;20474;-86
2022/11/13 03:54:30;;;;;;;8.90;7.97;;;;;;;3.34;100.00;152222.97;4954645;29;20954;-86
2022/11/13 03:57:36;;;;;;;8.90;7.90;;;;;;;3.37;100.00;152230.69;4948786;28;20455;-86
2022/11/13 04:00:41;;;;;;;12.20;8.13;;;;;;;3.34;100.00;152221.66;4958709;28;20478;-86
2022/11/13 04:03:45;;;;;;;9.70;8.40;;;;;;;3.32;100.00;152216.53;4977460;28;20797;-86
2022/11/13 04:06:49;;;;;;;10.87;8.90;;;;;;;3.26;100.00;152202.38;5000683;28;20460;-86
2022/11/13 04:09:53;;;;;;;9.57;8.57;;;;;;;3.20;100.00;152185.66;4988877;28;20467;-86
2022/11/13 04:13:00;;;;;;;9.67;8.43;;;;;;;3.11;100.00;152163.78;4986408;28;20560;-86
2022/11/13 04:16:05;;;;;;;10.10;8.67;;;;;;;3.03;100.00;152143.19;4979899;28;20592;-86
2022/11/13 04:19:09;;;;;;;10.10;8.50;;;;;;;2.93;100.00;152117.47;4973592;28;20446;-87
2022/11/13 04:22:13;;;;;;;10.03;8.70;;;;;;;2.92;100.00;152114.88;4972527;28;20484;-87
2022/11/13 04:25:18;;;;;;;14.27;8.40;;;;;;;2.88;100.00;152104.59;4980429;28;20488;-88
2022/11/13 04:28:23;;;;;;;9.80;8.67;;;;;;;2.81;100.00;152086.56;4973229;28;20492;-87
2022/11/13 04:31:27;;;;;;;9.00;8.20;;;;;;;2.76;100.00;152075.00;4973382;28;20465;-88
2022/11/13 04:34:31;;;;;;;17.40;8.17;;;;;;;2.71;100.00;152062.16;4983054;28;20454;-87
2022/11/13 04:37:36;;;;;;;10.67;7.77;;;;;;;2.62;100.00;152038.97;4977745;28;20449;-88
2022/11/13 04:40:40;;;;;;;10.47;9.00;;;;;;;2.52;100.00;152013.25;4973005;28;20867;-88
2022/11/13 04:43:45;;;;;;;9.07;8.17;;;;;;;2.42;100.00;151988.84;4978589;28;20449;-87
2022/11/13 04:46:49;;;;;;;8.67;7.67;;;;;;;2.47;100.00;152001.69;4973664;28;20944;-87
2022/11/13 04:49:53;;;;;;;8.60;7.70;;;;;;;2.46;100.00;151997.84;4978273;28;20487;-87
2022/11/13 04:52:57;;;;;;;9.60;8.60;;;;;;;2.44;100.00;151993.97;4987347;28;20579;-87
2022/11/13 04:56:01;;;;;;;9.00;8.03;;;;;;;2.49;100.00;152005.53;4973531;28;20533;-87
2022/11/13 04:59:07;;;;;;;10.20;8.73;;;;;;;2.52;100.00;152013.25;4975519;28;20450;-87
2022/11/13 05:02:11;;;;;;;8.77;7.83;;;;;;;2.44;100.00;151993.97;4994143;28;20506;-87
2022/11/13 05:05:16;;;;;;;9.97;7.60;;;;;;;2.31;100.00;151960.53;4988095;28;20487;-86
2022/11/13 05:08:20;;;;;;;44.23;11.17;;;;;;;2.21;100.00;151933.53;4995003;28;21059;-87
2022/11/13 05:11:24;;;;;;;33.13;8.57;;;;;;;2.15;100.00;151918.09;4980488;28;20477;-87
2022/11/13 05:14:30;;;;;;;24.20;8.10;;;;;;;2.09;100.00;151902.72;4989188;28;20417;-86
2022/11/13 05:17:34;;;;;;;41.50;8.40;;;;;;;2.04;100.00;151891.09;4994381;28;20905;-87
2022/11/13 05:20:38;;;;;;;48.90;8.20;;;;;;;1.94;100.00;151865.41;4980449;28;20531;-87
2022/11/13 05:23:42;;;;;;;27.77;7.43;;;;;;;1.83;100.00;151838.41;4976461;28;20446;-87
2022/11/13 05:26:46;;;;;;;42.43;8.70;;;;;;;1.79;100.00;151826.84;4977956;28;20956;-87
2022/11/13 05:29:52;;;;;;;15.30;7.10;;;;;;;1.74;100.00;151815.31;4986129;28;20507;-87
2022/11/13 05:32:55;;;;;;;49.97;9.50;;;;;;;1.67;100.00;151795.97;4976854;28;20426;-87
2022/11/13 05:36:03;;;;;;;23.53;7.67;;;;;;;1.63;100.00;151787.03;4978179;28;20457;-87
2022/11/13 05:39:08;;;;;;;15.70;7.57;;;;;;;1.56;100.00;151769.00;4998194;28;20461;-87
2022/11/13 05:42:12;;;;;;;24.90;7.70;;;;;;;1.54;100.00;151762.56;4976836;28;20863;-87
2022/11/13 05:45:17;;;;;;;26.90;8.47;;;;;;;1.52;100.00;151757.44;4986655;28;20948;-86
2022/11/13 05:48:21;;;;;;;12.20;7.67;;;;;;;1.51;100.00;151754.91;4984370;28;20803;-87
2022/11/13 05:51:27;;;;;;;21.87;8.50;;;;;;;1.50;100.00;151752.31;4987104;28;20985;-86
2022/11/13 05:54:32;;;;;;;24.70;8.03;;;;;;;1.35;100.00;151713.78;4976456;28;20453;-86
2022/11/13 05:57:36;;;;;;;32.87;9.60;;;;;;;1.36;100.00;151716.31;4989236;28;20955;-86
2022/11/13 06:00:42;;;;;;;28.47;10.10;;;;;;;1.33;100.00;151708.63;4996136;28;20894;-86
2022/11/13 06:03:47;;;;;;;23.33;9.70;;;;;;;1.34;100.00;151711.19;4979748;28;20497;-86
2022/11/13 06:06:52;;;;;;;32.70;9.63;;;;;;;1.37;100.00;151718.91;4985137;28;20505;-85
2022/11/13 06:09:56;;;;;;;19.57;9.70;;;;;;;1.55;100.00;151766.47;4976391;28;21005;-85
2022/11/13 06:13:00;;;;;;;39.77;11.03;;;;;;;1.58;100.00;151772.88;4976429;28;20480;-85
2022/11/13 06:16:07;;;;;;;69.43;12.10;;;;;;;1.61;100.00;151781.91;4981299;28;20461;-85
2022/11/13 06:19:11;;;;;;;79.40;15.23;;;;;;;1.72;100.00;151808.88;4975656;28;20437;-85
2022/11/13 06:22:16;;;;;;;64.33;21.10;;;;;;;1.70;100.00;151805.00;4980918;28;20452;-84
2022/11/13 06:25:20;;;;;;;82.83;23.47;;;;;;;1.59;100.00;151775.47;5002240;28;20460;-85
2022/11/13 06:28:24;;;;;;;58.13;16.33;;;;;;;1.61;100.00;151781.91;5010860;28;20512;-85
2022/11/13 06:31:32;;;;;;;58.23;16.03;;;;;;;1.66;100.00;151793.44;4983102;28;20457;-85
2022/11/13 06:34:36;;;;;;;28.27;14.73;;;;;;;1.75;100.00;151816.56;4990291;28;20457;-85
2022/11/13 06:37:40;;;;;;;117.03;17.53;;;;;;;1.80;100.00;151829.44;4977429;28;20485;-84
2022/11/13 06:40:45;;;;;;;137.10;17.90;;;;;;;1.82;100.00;151834.56;4992780;28;20485;-85
2022/11/13 06:43:50;;;;;;;142.57;17.23;;;;;;;1.89;100.00;151851.25;4990927;28;20489;-84
2022/11/13 06:46:55;;;;;;;131.93;16.53;;;;;;;1.92;100.00;151860.28;4995084;28;20484;-84
2022/11/13 06:49:59;;;;;;;69.27;14.20;;;;;;;1.92;100.00;151860.28;4994280;28;20471;-85
2022/11/13 06:53:03;;;;;;;79.50;13.70;;;;;;;1.89;100.00;151852.56;4984418;28;20457;-84
2022/11/13 06:56:08;;;;;;;89.77;15.17;;;;;;;1.93;100.00;151862.88;4985597;28;20508;-84
2022/11/13 06:59:13;;;;;;;97.40;15.27;;;;;;;1.98;100.00;151874.41;4983498;28;20572;-85
2022/11/13 07:02:18;;;;;;;97.30;15.93;;;;;;;2.01;100.00;151883.44;4995540;28;20445;-84
2022/11/13 07:05:23;;;;;;;52.80;13.23;;;;;;;2.03;100.00;151888.56;4994741;28;20444;-85
2022/11/13 07:08:27;;;;;;;51.80;15.20;;;;;;;2.05;100.00;151892.41;4994889;28;20436;-86
2022/11/13 07:11:31;;;;;;;57.90;16.90;;;;;;;2.06;100.00;151895.00;4979689;28;20433;-85
2022/11/13 07:14:35;;;;;;;61.43;13.40;;;;;;;2.08;100.00;151901.41;4975777;28;20562;-86
2022/11/13 07:17:41;;;;;;;50.33;13.43;;;;;;;2.11;100.00;151909.13;4975579;28;20445;-86
2022/11/13 07:20:45;;;;;;;41.70;13.80;;;;;;;2.14;100.00;151915.56;4990416;28;20511;-86
2022/11/13 07:23:50;;;;;;;42.60;12.37;;;;;;;2.18;100.00;151927.13;4995563;28;20795;-86
2022/11/13 07:26:54;;;;;;;52.00;15.10;;;;;;;2.12;100.00;151911.69;4996001;28;20483;-88
2022/11/13 07:29:58;;;;;;;78.60;16.07;;;;;;;2.12;100.00;151910.44;4979052;28;20488;-88
2022/11/13 07:33:05;;;;;;;66.60;18.27;;;;;;;2.17;100.00;151924.53;4995871;28;20499;-88
2022/11/13 07:36:10;;;;;;;68.13;17.50;;;;;;;2.18;100.00;151927.13;4998253;28;20813;-89
2022/11/13 07:39:14;;;;;;;75.20;16.40;;;;;;;2.27;100.00;151948.97;4991804;28;20421;-88
2022/11/13 07:42:19;;;;;;;44.00;15.67;;;;;;;2.32;100.00;151963.13;5002732;28;20495;-88
2022/11/13 07:45:26;;;;;;;42.37;12.20;;;;;;;2.41;100.00;151986.25;4997225;28;20504;-87
2022/11/13 07:48:32;;;;;;;43.53;12.67;;;;;;;2.42;100.00;151988.84;4982127;28;20956;-89
2022/11/13 07:51:36;;;;;;;65.87;12.53;;;;;;;2.51;100.00;152009.41;4991048;28;20470;-89
2022/11/13 07:54:41;;;;;;;67.20;13.43;;;;;;;2.45;100.00;151996.56;5011304;28;20499;-76
2022/11/13 07:57:45;;;;;;;83.67;15.17;;;;;;;2.52;100.00;152011.97;4976881;28;20446;-76
2022/11/13 08:00:49;;;;;;;52.10;13.37;;;;;;;2.60;100.00;152032.53;4980043;28;20504;-75
2022/11/13 08:03:55;;;;;;;94.83;15.40;;;;;;;2.65;100.00;152046.69;4979410;28;20428;-75
2022/11/13 08:06:59;;;;;;;59.63;15.13;;;;;;;2.67;100.00;152051.88;4980849;28;20492;-76
2022/11/13 08:10:08;;;;;;;19.40;10.77;;;;;;;2.78;100.00;152078.88;4986405;28;20484;-76
2022/11/13 08:13:15;;;;;;;47.77;14.00;;;;;;;2.91;100.00;152112.34;4989923;28;20464;-76
2022/11/13 08:16:22;;;;;;;63.10;14.60;;;;;;;2.94;100.00;152120.00;4992063;28;20779;-76
2022/11/13 08:19:27;;;;;;;82.23;16.30;;;;;;;2.94;100.00;152120.00;4990871;28;20647;-76
2022/11/13 08:22:32;;;;;;;29.77;13.10;;;;;;;3.04;100.00;152145.78;4991829;28;20521;-76
2022/11/13 08:25:36;;;;;;;42.00;15.03;;;;;;;3.22;100.00;152192.09;4982180;28;20978;-76
2022/11/13 08:28:40;;;;;;;35.13;14.60;;;;;;;3.17;100.00;152179.22;4971874;28;20518;-76
2022/11/13 08:31:44;;;;;;;62.00;16.37;;;;;;;3.16;100.00;152176.66;4977244;28;20488;-87
2022/11/13 08:34:50;;;;;;;112.50;20.27;;;;;;;3.14;100.00;152170.22;4974462;28;20428;-87
2022/11/13 08:37:54;;;;;;;121.80;19.53;;;;;;;3.18;100.00;152181.78;4985010;28;20557;-87
2022/11/13 08:40:59;;;;;;;84.47;16.50;;;;;;;3.24;100.00;152197.22;4991811;28;21013;-87
2022/11/13 08:44:04;;;;;;;117.47;19.70;;;;;;;3.33;100.00;152220.41;4975976;28;20453;-87
2022/11/13 08:47:08;;;;;;;132.73;20.63;;;;;;;3.35;100.00;152225.56;4995762;28;20848;-87
2022/11/13 08:50:14;;;;;;;229.87;25.57;;;;;;;3.29;100.00;152210.09;5003269;28;20438;-87
2022/11/13 08:53:18;;;;;;;125.87;21.23;;;;;;;3.23;100.00;152193.41;4982816;28;20460;-87
2022/11/13 08:56:22;;;;;;;207.37;23.93;;;;;;;3.33;100.00;152219.13;4980899;28;20420;-87
2022/11/13 08:59:27;;;;;;;65.80;16.47;;;;;;;3.40;100.00;152238.41;4987719;28;20468;-87
2022/11/13 09:02:31;;;;;;;204.53;25.73;;;;;;;3.47;100.00;152256.44;4977439;28;20537;-87
2022/11/13 09:05:37;;;;;;;101.10;18.17;;;;;;;3.48;100.00;152259.00;4993926;28;20401;-87
2022/11/13 09:08:41;;;;;;;48.60;26.97;;;;;;;3.51;100.00;152266.75;4989079;28;21055;-87
2022/11/13 09:11:46;;;;;;;63.80;16.40;;;;;;;3.58;100.00;152284.75;4976522;28;20500;-87
2022/11/13 09:14:50;;;;;;;66.73;16.60;;;;;;;3.71;100.00;152315.69;4977316;28;20842;-87
2022/11/13 09:17:56;;;;;;;60.40;17.60;;;;;;;3.80;100.00;152338.81;4982015;28;20522;-87
2022/11/13 09:21:02;;;;;;;135.87;22.63;;;;;;;3.81;100.00;152342.72;4983631;28;20503;-87
2022/11/13 09:24:06;;;;;;;96.67;21.67;;;;;;;3.88;100.00;152359.44;4997217;28;20931;-86
2022/11/13 09:27:10;;;;;;;58.90;17.27;;;;;;;3.94;100.00;152374.88;4986924;28;21178;-87
2022/11/13 09:30:16;;;;;;;28.97;14.77;;;;;;;3.99;100.00;152389.06;4977745;28;20461;-87
2022/11/13 09:33:20;;;;;;;58.13;17.60;;;;;;;4.04;100.00;152400.63;4977083;28;20967;-87
2022/11/13 09:36:27;;;;;;;115.07;22.23;;;;;;;4.02;100.00;152396.78;4985971;28;20483;-87
2022/11/13 09:39:35;;;;;;;217.60;28.83;;;;;;;3.97;100.00;152383.88;4984068;28;20481;-87
2022/11/13 09:42:40;;;;;;;31.43;15.50;;;;;;;4.01;100.00;152392.91;4996157;28;20535;-86
2022/11/13 09:45:44;;;;;;;168.70;32.07;;;;;;;4.02;100.00;152396.78;4993211;28;20457;-86
2022/11/13 09:48:51;;;;;;;67.50;16.57;;;;;;;4.04;100.00;152400.63;4987412;28;20475;-86
2022/11/13 09:51:58;;;;;;;88.03;18.87;;;;;;;4.09;100.00;152413.50;4996567;28;20472;-86
2022/11/13 09:55:03;;;;;;;73.70;18.37;;;;;;;4.10;100.00;152416.09;4994574;28;20448;-86
2022/11/13 09:58:13;;;;;;;45.43;15.90;;;;;;;4.25;100.00;152454.72;4977391;28;20462;-85
2022/11/13 10:01:24;;;;;;;29.63;17.57;;;;;;;4.25;100.00;152454.72;4985709;28;20476;-85
2022/11/13 10:04:50;;;;;;;97.77;28.27;;;;;;;4.28;100.00;152463.75;4977173;28;20521;-85
2022/11/13 10:08:03;;;;;;;32.27;16.40;;;;;;;4.34;100.00;152477.94;4977328;28;20430;-86
2022/11/13 10:11:14;;;;;;;29.20;17.40;;;;;;;4.42;100.00;152498.50;4976994;28;20406;-87
2022/11/13 10:14:23;;;;;;;22.73;16.30;;;;;;;4.45;100.00;152506.22;4984261;28;20464;-87
2022/11/13 10:17:32;;;;;;;17.97;15.17;;;;;;;4.50;100.00;152517.84;4996718;28;20947;-86
2022/11/13 10:20:38;;;;;;;23.63;18.63;;;;;;;4.68;100.00;152565.53;4996233;28;20500;-87
2022/11/13 10:23:49;;;;;;;16.47;14.20;;;;;;;4.90;100.00;152620.91;4996780;28;20428;-86
2022/11/13 10:26:55;;;;;;;18.90;15.07;;;;;;;5.10;100.00;152672.47;4996810;28;20767;-86
2022/11/13 10:29:59;;;;;;;17.47;14.80;;;;;;;5.19;100.00;152694.41;4997083;28;20445;-86
2022/11/13 10:33:05;;;;;;;19.13;14.60;;;;;;;5.30;100.00;152722.72;4998486;28;20967;-86
2022/11/13 10:36:19;;;;;;;18.60;16.70;;;;;;;5.45;100.00;152761.44;4995731;28;20409;-87
2022/11/13 10:39:25;;;;;;;17.77;15.60;;;;;;;5.48;100.00;152770.44;4985225;28;20452;-86
2022/11/13 10:42:31;;;;;;;18.97;16.27;;;;;;;5.61;100.00;152801.41;4994936;28;21358;-87
2022/11/13 10:45:35;;;;;;;18.47;15.33;;;;;;;5.65;100.00;152813.00;4979992;28;20523;-87
2022/11/13 10:48:40;;;;;;;15.57;13.97;;;;;;;5.68;100.00;152819.44;4976506;28;20454;-86
2022/11/13 10:51:44;;;;;;;18.70;16.10;;;;;;;5.94;100.00;152886.56;4984161;28;20488;-86
2022/11/13 10:54:50;;;;;;;19.00;16.30;;;;;;;6.01;100.00;152905.88;4995193;28;21059;-86
2022/11/13 10:57:56;;;;;;;19.67;17.43;;;;;;;6.02;100.00;152908.50;4981516;28;20488;-86
2022/11/13 11:01:00;;;;;;;17.67;15.77;;;;;;;5.97;100.00;152895.59;4980762;28;20533;-86
2022/11/13 11:04:05;;;;;;;16.40;13.80;;;;;;;6.00;100.00;152903.34;4976231;28;20414;-86
2022/11/13 11:07:14;;;;;;;12.53;11.23;;;;;;;6.10;100.00;152929.13;4984653;28;20488;-86
2022/11/13 11:10:23;;;;;;;11.20;10.10;;;;;;;6.30;100.00;152978.16;4994016;28;20456;-86
2022/11/13 11:13:27;;;;;;;22.03;17.80;;;;;;;6.52;100.00;153034.91;4994843;28;20517;-77
2022/11/13 11:16:32;;;;;;;18.03;15.03;;;;;;;6.55;100.00;153042.66;4983054;28;20437;-77
2022/11/13 11:19:38;;;;;;;16.80;14.50;;;;;;;6.60;100.00;153055.56;4989449;28;20529;-77
2022/11/13 11:23:27;;;;;;;17.50;14.73;;;;;;;6.55;100.00;153043.97;5064797;23;20544;-85
2022/11/13 11:26:35;;;;;;;19.03;16.57;;;;;;;6.59;100.00;153053.00;4950589;28;20780;-86
2022/11/13 11:29:43;;;;;;;21.40;16.80;;;;;;;6.60;100.00;153056.88;4934138;29;20498;-85
2022/11/13 11:32:51;;;;;;;21.33;17.10;;;;;;;6.59;100.00;153054.28;4949611;28;20438;-85
2022/11/13 11:36:00;;;;;;;20.60;17.67;;;;;;;6.54;100.00;153041.38;4933716;29;20408;-86
2022/11/13 11:39:15;;;;;;;19.40;16.77;;;;;;;6.60;100.00;153055.56;4934625;29;20471;-86
2022/11/13 11:42:26;;;;;;;18.83;16.00;;;;;;;6.80;100.00;153107.22;4940891;28;20510;-86
2022/11/13 11:45:33;;;;;;;16.90;14.97;;;;;;;6.91;100.00;153134.34;4935743;29;20969;-86
2022/11/13 11:48:37;;;;;;;17.20;15.40;;;;;;;7.05;100.00;153171.75;4942891;29;20435;-86
2022/11/13 11:51:49;;;;;;;19.03;15.37;;;;;;;7.17;100.00;153201.47;4956997;28;20435;-86
2022/11/13 11:55:03;;;;;;;16.33;14.50;;;;;;;7.15;100.00;153196.25;4935495;29;20958;-86
2022/11/13 11:58:18;;;;;;;19.30;16.10;;;;;;;7.20;100.00;153210.47;4939743;29;20517;-86
2022/11/13 12:01:30;;;;;;;16.30;14.50;;;;;;;7.16;100.00;153200.16;4951006;28;20496;-86
2022/11/13 12:04:49;;;;;;;17.43;15.63;;;;;;;7.19;100.00;153207.91;4934904;29;20563;-86
2022/11/13 12:08:01;;;;;;;18.57;15.90;;;;;;;7.22;100.00;153215.66;4946917;29;20423;-86
2022/11/13 12:11:13;;;;;;;16.70;14.90;;;;;;;7.12;100.00;153189.81;4942428;28;20453;-87
2022/11/13 12:14:23;;;;;;;18.60;16.67;;;;;;;7.15;100.00;153197.56;4944875;29;20539;-86
2022/11/13 12:17:41;;;;;;;18.27;15.60;;;;;;;7.16;100.00;153200.16;4943117;29;20777;-86
2022/11/13 12:20:53;;;;;;;19.70;16.60;;;;;;;7.30;100.00;153236.34;4956485;28;20937;-86
2022/11/13 12:24:06;;;;;;;17.23;15.40;;;;;;;7.45;100.00;153273.75;4955148;28;20427;-86
2022/11/13 12:27:19;;;;;;;15.83;14.20;;;;;;;7.60;100.00;153312.50;4966050;28;20617;-86
2022/11/13 12:30:32;;;;;;;16.30;14.00;;;;;;;7.68;100.00;153333.16;4971620;28;20466;-87
2022/11/13 12:33:43;;;;;;;18.50;16.60;;;;;;;7.64;100.00;153321.56;4985560;28;20438;-86
2022/11/13 12:36:47;;;;;;;13.50;12.10;;;;;;;7.61;100.00;153315.09;4959899;28;20470;-86
2022/11/13 12:39:55;;;;;;;15.33;13.30;;;;;;;7.64;100.00;153322.84;4963267;28;20593;-86
2022/11/13 12:43:25;;;;;;;15.67;14.07;;;;;;;7.75;100.00;153351.28;4973655;28;20861;-86
2022/11/13 12:46:36;;;;;;;19.90;17.70;;;;;;;7.86;100.00;153378.41;4980061;28;20504;-86
2022/11/13 12:49:40;;;;;;;17.67;15.40;;;;;;;7.88;100.00;153383.56;4984950;28;20445;-86
2022/11/13 12:52:44;;;;;;;17.00;15.20;;;;;;;7.87;100.00;153382.25;4954900;29;20410;-86
2022/11/13 12:55:58;;;;;;;17.77;15.87;;;;;;;7.78;100.00;153357.72;4970420;28;20449;-86
2022/11/13 12:59:06;;;;;;;17.67;15.03;;;;;;;7.89;100.00;153387.41;4971485;28;20461;-86
2022/11/13 13:02:29;;;;;;;14.57;13.00;;;;;;;7.83;100.00;153371.94;4960242;28;20497;-86
2022/11/13 13:05:49;;;;;;;14.43;12.80;;;;;;;7.87;100.00;153380.97;4972591;28;20518;-86
2022/11/13 13:09:12;;;;;;;14.63;13.13;;;;;;;7.92;100.00;153393.88;4983764;28;20445;-86
2022/11/13 13:12:24;;;;;;;15.53;13.83;;;;;;;7.89;100.00;153386.13;4966532;28;20454;-86
2022/11/13 13:15:32;;;;;;;14.77;13.27;;;;;;;7.93;100.00;153396.47;4990052;28;21100;-86
2022/11/13 13:18:39;;;;;;;15.93;14.23;;;;;;;8.02;100.00;153418.44;4976992;28;20449;-86
2022/11/13 13:21:44;;;;;;;15.37;13.30;;;;;;;8.03;100.00;153421.00;4958113;28;20953;-87
2022/11/13 13:24:58;;;;;;;13.20;11.90;;;;;;;7.97;100.00;153408.09;4950806;28;21008;-76
2022/11/13 13:28:13;;;;;;;13.57;11.50;;;;;;;7.97;100.00;153406.78;4937736;29;20455;-76
2022/11/13 13:31:25;;;;;;;13.93;12.47;;;;;;;7.96;100.00;153404.22;4940582;28;20523;-76
2022/11/13 13:34:46;;;;;;;11.70;10.50;;;;;;;7.94;100.00;153399.09;4946013;29;20454;-76
2022/11/13 13:37:56;;;;;;;13.37;11.97;;;;;;;7.95;100.00;153401.63;4937547;29;20475;-76
2022/11/13 13:41:11;;;;;;;13.37;11.57;;;;;;;7.90;100.00;153388.72;4945600;28;20467;-76
2022/11/13 13:44:34;;;;;;;14.40;11.90;;;;;;;7.90;100.00;153388.72;4938913;29;20447;-76
2022/11/13 13:47:40;;;;;;;14.47;12.60;;;;;;;7.91;100.00;153391.31;4937406;29;20814;-76
2022/11/13 13:50:47;;;;;;;12.40;11.10;;;;;;;8.01;100.00;153417.16;4949090;28;20490;-77
2022/11/13 13:53:51;;;;;;;13.70;11.57;;;;;;;8.03;100.00;153422.31;4939340;28;20841;-76
2022/11/13 13:56:57;;;;;;;14.17;11.60;;;;;;;7.92;100.00;153395.19;4945020;28;20459;-76
2022/11/13 14:00:01;;;;;;;12.73;11.30;;;;;;;7.90;100.00;153388.72;4953319;28;20493;-76
2022/11/13 14:03:16;;;;;;;13.13;11.27;;;;;;;7.99;100.00;153412.00;4945664;28;20540;-76
2022/11/13 14:06:24;;;;;;;13.20;11.20;;;;;;;8.06;100.00;153430.06;4945965;29;20961;-76
2022/11/13 14:09:29;;;;;;;12.80;10.83;;;;;;;8.16;100.00;153455.91;4943923;28;20456;-76
2022/11/13 14:12:33;;;;;;;14.93;12.77;;;;;;;8.29;100.00;153489.56;4939864;29;20476;-76